Time;durP1;ratioP1;P1;durP2;ratioP2;P2;SDS_P1;SDS_P2;PMS_P1;PMS_P2;Temp;Humidity;BMP_temperature;BMP_pressure;BME280_temperature;BME280_humidity;BME280_pressure;Samples;Min_cycle;Max_cycle;Signal;HPM_P1;HPM_P2
2022/12/15 00:41:04;;;;;;;7.40;4.15;;;2.50;99.90;;;;;;5049444;28;20100;-73
2022/12/15 00:43:31;;;;;;;6.38;2.90;;;2.80;99.90;;;;;;5049070;28;20677;-73
2022/12/15 00:48:41;;;;;;;5.30;2.88;;;3.00;99.90;;;;;;5049731;28;20028;-73
2022/12/15 00:51:07;;;;;;;6.97;2.83;;;;;;;;;;5049086;28;20021;-73
2022/12/15 01:20:59;;;;;;;2.83;1.88;;;2.20;99.90;;;;;;5044038;28;20110;-73
2022/12/15 01:23:25;;;;;;;8.73;3.80;;;2.20;99.90;;;;;;5048398;28;20017;-74
2022/12/15 01:25:52;;;;;;;3.58;1.85;;;2.20;99.90;;;;;;5046726;28;20021;-73
2022/12/15 01:28:18;;;;;;;4.68;2.70;;;2.40;99.90;;;;;;5047157;28;20032;-73
2022/12/15 01:30:44;;;;;;;2.22;1.27;;;;;;;;;;5048512;28;20033;-73
2022/12/15 01:33:11;;;;;;;1.10;1.00;;;;;;;;;;5046963;28;20025;-73
2022/12/15 01:35:37;;;;;;;1.52;1.42;;;;;;;;;;5048324;28;20461;-73
2022/12/15 01:38:03;;;;;;;2.38;1.88;;;2.40;99.90;;;;;;5047684;28;20036;-73
2022/12/15 01:40:44;;;;;;;5.20;2.95;;;;;;;;;;5048107;28;20017;-73
2022/12/15 01:43:15;;;;;;;2.35;1.63;;;2.20;99.90;;;;;;5048083;28;20053;-73
2022/12/15 01:46:04;;;;;;;3.83;2.65;;;2.20;99.90;;;;;;5047802;28;20047;-73
2022/12/15 01:48:41;;;;;;;1.85;1.55;;;2.00;99.90;;;;;;5037755;28;20044;-74
2022/12/15 01:51:09;;;;;;;6.80;2.80;;;;;;;;;;5048002;28;20055;-73
2022/12/15 01:53:39;;;;;;;5.95;3.90;;;2.00;99.90;;;;;;5047963;28;20582;-73
2022/12/15 01:56:07;;;;;;;5.65;2.42;;;1.90;99.90;;;;;;5047549;28;20490;-74
2022/12/15 01:58:33;;;;;;;11.00;2.60;;;;;;;;;;5047923;28;20025;-74
2022/12/15 02:01:00;;;;;;;3.10;2.00;;;1.70;99.90;;;;;;5047378;28;20036;-73
2022/12/15 02:03:26;;;;;;;4.32;2.15;;;;;;;;;;5047892;28;20021;-74
2022/12/15 02:05:52;;;;;;;2.70;2.08;;;;;;;;;;5047461;28;20029;-74
2022/12/15 02:08:18;;;;;;;6.65;2.55;;;1.80;99.90;;;;;;5047629;28;20083;-73
2022/12/15 02:10:57;;;;;;;2.90;2.50;;;1.90;99.90;;;;;;5047529;28;20025;-74
2022/12/15 02:13:41;;;;;;;8.63;3.35;;;1.80;99.90;;;;;;5047245;28;20029;-74
2022/12/15 02:16:25;;;;;;;4.63;2.30;;;2.20;99.90;;;;;;5037242;28;20029;-74
2022/12/15 02:18:51;;;;;;;5.72;2.25;;;;;;;;;;5047361;28;20021;-74
2022/12/15 02:21:23;;;;;;;3.80;2.63;;;1.80;99.90;;;;;;5047083;28;20437;-74
2022/12/15 02:24:07;;;;;;;6.43;3.45;;;1.70;99.90;;;;;;5047400;28;20082;-73
2022/12/15 02:26:54;;;;;;;10.00;3.30;;;1.60;99.90;;;;;;5047614;28;20037;-73
2022/12/15 02:29:38;;;;;;;;;;;1.60;99.90;;;;;;5046816;28;20017;-74
2022/12/15 02:32:10;;;;;;;9.13;4.28;;;1.50;99.90;;;;;;5035142;28;19911;-73
2022/12/15 02:34:44;;;;;;;2.47;1.98;;;1.50;99.90;;;;;;5047157;28;20043;-74
2022/12/15 02:37:31;;;;;;;7.13;2.88;;;1.70;99.90;;;;;;5047729;28;20082;-73
2022/12/15 02:39:57;;;;;;;6.55;3.85;;;;;;;;;;5047155;28;20573;-74
2022/12/15 02:42:27;;;;;;;3.45;2.40;;;1.40;99.90;;;;;;5047321;28;20044;-75
2022/12/15 02:45:00;;;;;;;3.92;2.25;;;1.40;99.90;;;;;;5046595;28;20401;-76
2022/12/15 02:48:10;;;;;;;5.18;3.25;;;1.20;99.90;;;;;;5047465;28;20057;-76
2022/12/15 02:50:59;;;;;;;6.43;3.25;;;1.10;99.90;;;;;;5047551;28;20068;-76
2022/12/15 02:54:06;;;;;;;7.65;3.95;;;1.30;99.90;;;;;;5036997;28;20490;-75
2022/12/15 02:57:04;;;;;;;10.73;4.18;;;1.30;99.90;;;;;;5036221;28;20025;-75
2022/12/15 02:59:43;;;;;;;6.40;2.75;;;1.30;99.90;;;;;;5046831;28;20890;-75
2022/12/15 03:02:11;;;;;;;3.83;2.55;;;2.20;99.90;;;;;;5047267;28;20126;-76
2022/12/15 03:04:38;;;;;;;6.38;3.35;;;;;;;;;;5047038;28;20025;-76
2022/12/15 03:07:08;;;;;;;9.65;4.05;;;1.70;99.90;;;;;;5047084;28;20021;-76
2022/12/15 03:09:34;;;;;;;4.88;2.63;;;1.70;99.90;;;;;;5047072;28;20040;-76
2022/12/15 03:12:00;;;;;;;7.75;3.97;;;;;;;;;;5042477;28;20028;-75
2022/12/15 03:14:26;;;;;;;7.13;3.42;;;1.60;99.90;;;;;;5043505;28;20029;-76
2022/12/15 03:16:52;;;;;;;10.82;4.10;;;1.20;99.90;;;;;;5046934;28;20482;-75
2022/12/15 03:19:18;;;;;;;6.47;3.35;;;2.40;99.90;;;;;;5047068;28;20018;-76
2022/12/15 03:21:43;;;;;;;10.05;4.07;;;1.60;99.90;;;;;;5045834;28;20052;-75
2022/12/15 03:24:09;;;;;;;8.93;2.80;;;;;;;;;;5047157;28;20179;-75
2022/12/15 03:26:35;;;;;;;5.50;2.65;;;;;;;;;;5046882;28;20032;-75
2022/12/15 03:29:01;;;;;;;6.78;3.50;;;1.30;99.90;;;;;;5046444;28;20032;-75
2022/12/15 03:31:27;;;;;;;3.88;2.65;;;;;;;;;;5045608;28;20022;-76
2022/12/15 03:33:54;;;;;;;4.22;2.47;;;;;;;;;;5049660;28;20417;-76
2022/12/15 03:36:21;;;;;;;3.63;2.45;;;;;;;;;;5042145;28;20048;-75
2022/12/15 03:38:47;;;;;;;3.35;1.48;;;;;;;;;;5059518;28;20571;-76
2022/12/15 03:41:13;;;;;;;4.00;1.98;;;1.60;99.90;;;;;;5050584;28;20120;-75
2022/12/15 03:43:39;;;;;;;5.65;2.00;;;;;;;;;;5049581;28;20197;-76
2022/12/15 03:46:05;;;;;;;2.60;1.55;;;;;;;;;;5050437;28;20025;-75
2022/12/15 03:48:31;;;;;;;4.22;2.10;;;1.40;99.90;;;;;;5049593;28;20390;-74
2022/12/15 03:50:58;;;;;;;2.80;1.85;;;;;;;;;;5050723;28;20037;-73
2022/12/15 03:53:24;;;;;;;3.80;3.28;;;;;;;;;;5038089;28;20054;-73
2022/12/15 03:55:50;;;;;;;6.50;3.03;;;;;;;;;;5050355;28;20029;-76
2022/12/15 03:58:15;;;;;;;8.65;2.45;;;1.80;99.90;;;;;;5050926;28;20033;-75
2022/12/15 04:00:41;;;;;;;6.18;2.92;;;;;;;;;;5050562;28;20587;-75
2022/12/15 04:03:08;;;;;;;5.90;3.38;;;2.10;99.90;;;;;;5037284;28;20020;-76
2022/12/15 04:05:34;;;;;;;5.10;2.53;;;2.30;99.90;;;;;;5049970;28;20041;-75
2022/12/15 04:08:00;;;;;;;4.68;1.90;;;2.40;99.90;;;;;;5050111;28;20020;-76
2022/12/15 04:10:28;;;;;;;2.20;1.50;;;2.40;99.90;;;;;;5049727;28;20376;-76
2022/12/15 04:13:01;;;;;;;1.98;1.60;;;2.60;99.90;;;;;;5037606;28;20029;-76
2022/12/15 04:15:27;;;;;;;2.35;1.73;;;2.70;99.90;;;;;;5049561;28;20103;-76
2022/12/15 04:17:53;;;;;;;1.58;1.48;;;3.10;99.90;;;;;;5050309;28;20121;-76
2022/12/15 04:20:20;;;;;;;2.25;1.83;;;2.80;99.90;;;;;;5048852;28;20022;-76
2022/12/15 04:22:47;;;;;;;1.80;1.70;;;3.10;99.90;;;;;;5049822;28;20033;-75
2022/12/15 05:33:58;;;;;;;6.05;2.10;;;;;;;;;;5048250;28;20032;-75
2022/12/15 05:36:24;;;;;;;3.50;1.83;;;;;;;;;;5047851;28;20037;-75
2022/12/15 05:38:51;;;;;;;2.42;1.85;;;3.60;99.90;;;;;;5048166;28;20467;-75
2022/12/15 05:41:18;;;;;;;4.50;2.58;;;3.60;99.90;;;;;;5048227;28;20505;-75
2022/12/15 05:43:44;;;;;;;3.22;1.83;;;;;;;;;;5034629;28;20041;-75
2022/12/15 05:46:10;;;;;;;4.43;1.83;;;;;;;;;;5047675;28;20067;-76
2022/12/15 05:48:36;;;;;;;2.67;2.17;;;;;;;;;;5047712;28;20095;-76
2022/12/15 05:51:04;;;;;;;2.05;1.70;;;3.60;99.90;;;;;;5048133;28;20072;-76
2022/12/15 05:53:30;;;;;;;2.75;1.77;;;;;;;;;;5039355;28;20029;-76
2022/12/15 05:56:04;;;;;;;5.35;1.85;;;3.70;99.90;;;;;;5041624;28;20029;-76
2022/12/15 05:58:30;;;;;;;3.05;1.85;;;3.60;99.90;;;;;;5048416;28;20402;-75
2022/12/15 06:01:26;;;;;;;3.45;1.85;;;3.70;99.90;;;;;;5047684;28;20013;-76
2022/12/15 06:03:52;;;;;;;1.70;1.60;;;3.70;99.90;;;;;;5039003;28;20075;-75
2022/12/15 06:06:18;;;;;;;3.22;2.05;;;3.30;99.90;;;;;;5046464;28;20032;-74
2022/12/15 06:08:44;;;;;;;4.38;1.75;;;;;;;;;;5044939;28;20170;-73
2022/12/15 06:11:12;;;;;;;4.35;1.95;;;3.70;99.90;;;;;;5041965;28;20099;-74
2022/12/15 06:13:37;;;;;;;5.53;2.53;;;3.60;99.90;;;;;;5045523;28;20044;-73
2022/12/15 06:16:18;;;;;;;2.90;1.92;;;3.70;99.90;;;;;;5045712;28;20529;-73
2022/12/15 06:18:46;;;;;;;5.47;2.45;;;3.80;99.90;;;;;;5045442;28;20017;-73
2022/12/15 06:21:17;;;;;;;2.20;1.60;;;3.90;99.90;;;;;;5040416;28;20020;-73
2022/12/15 06:23:44;;;;;;;6.63;2.80;;;3.90;99.90;;;;;;5036787;28;20040;-72
2022/12/15 06:26:11;;;;;;;4.00;2.43;;;3.90;99.90;;;;;;5040751;28;20119;-73
2022/12/15 06:28:37;;;;;;;3.08;1.75;;;;;;;;;;5043710;28;20025;-73
2022/12/15 06:31:05;;;;;;;3.40;2.08;;;4.00;99.90;;;;;;5045449;28;20033;-73
2022/12/15 06:33:31;;;;;;;7.47;2.22;;;;;;;;;;5045851;28;20024;-73
2022/12/15 06:36:05;;;;;;;5.88;1.95;;;3.80;99.90;;;;;;5045049;28;20032;-73
2022/12/15 06:38:31;;;;;;;4.22;2.45;;;;;;;;;;5045212;28;20213;-72
2022/12/15 06:40:58;;;;;;;2.08;1.58;;;4.20;99.90;;;;;;5045137;28;20161;-75
2022/12/15 06:43:25;;;;;;;;;;;4.20;99.90;;;;;;5045685;28;20049;-72
2022/12/15 06:45:51;;;;;;;5.03;2.67;;;;;;;;;;5042893;28;20012;-73
2022/12/15 06:48:18;;;;;;;3.50;1.67;;;4.80;99.90;;;;;;5041890;28;20187;-72
2022/12/15 06:50:47;;;;;;;3.47;2.03;;;;;;;;;;5040173;28;20483;-72
2022/12/15 06:53:14;;;;;;;5.10;2.75;;;4.30;99.90;;;;;;5039140;28;20483;-72
2022/12/15 06:55:40;;;;;;;6.75;2.85;;;4.70;99.90;;;;;;5041760;28;20904;-72
2022/12/15 06:58:06;;;;;;;5.68;2.63;;;;;;;;;;5038930;28;20032;-73
2022/12/15 07:00:35;;;;;;;5.22;2.13;;;4.30;99.90;;;;;;5034875;28;20029;-72
2022/12/15 07:03:02;;;;;;;2.35;1.55;;;4.30;99.90;;;;;;5042139;28;20029;-73
2022/12/15 07:05:28;;;;;;;2.92;2.33;;;4.50;99.90;;;;;;5045121;28;20383;-73
2022/12/15 07:07:54;;;;;;;4.95;2.63;;;;;;;;;;5044898;28;20036;-72
2022/12/15 07:10:20;;;;;;;4.25;2.70;;;;;;;;;;5042109;28;20037;-73
2022/12/15 07:12:46;;;;;;;6.80;3.22;;;;;;;;;;5040948;28;20521;-74
2022/12/15 07:15:12;;;;;;;8.75;3.33;;;;;;;;;;5044603;28;20032;-75
2022/12/15 07:17:39;;;;;;;5.30;2.90;;;;;;;;;;5042681;28;20021;-76
2022/12/15 07:20:05;;;;;;;4.38;2.25;;;;;;;;;;5036361;28;20071;-73
2022/12/15 07:22:31;;;;;;;4.15;2.85;;;;;;;;;;5042908;28;20041;-72
2022/12/15 07:24:57;;;;;;;5.18;2.35;;;;;;;;;;5045033;28;20068;-72
2022/12/15 07:27:23;;;;;;;3.40;3.03;;;;;;;;;;5045095;28;20515;-72
2022/12/15 07:29:49;;;;;;;4.22;2.28;;;;;;;;;;5043361;28;20029;-74
2022/12/15 07:32:15;;;;;;;7.10;2.80;;;;;;;;;;5039287;28;20567;-73
2022/12/15 07:34:41;;;;;;;5.95;3.15;;;4.40;99.90;;;;;;5044015;28;20037;-73
2022/12/15 07:37:07;;;;;;;8.52;2.60;;;4.50;99.90;;;;;;5048710;28;20041;-74
2022/12/15 07:39:33;;;;;;;8.02;2.42;;;;;;;;;;5035728;28;20036;-76
2022/12/15 07:41:59;;;;;;;4.25;1.70;;;4.60;99.90;;;;;;5044280;28;20524;-75
2022/12/15 07:44:25;;;;;;;5.60;2.33;;;;;;;;;;5041985;28;20060;-75
2022/12/15 07:46:51;;;;;;;2.72;2.38;;;;;;;;;;5041624;28;20028;-75
2022/12/15 07:49:17;;;;;;;5.22;2.70;;;4.50;99.90;;;;;;5040794;28;20030;-75
2022/12/15 07:51:43;;;;;;;5.22;2.65;;;;;;;;;;5045289;28;20047;-74
2022/12/15 07:54:11;;;;;;;4.15;2.60;;;4.60;99.90;;;;;;5044481;28;20063;-75
2022/12/15 07:56:39;;;;;;;6.68;3.75;;;4.70;99.90;;;;;;5044987;28;20025;-73
2022/12/15 07:59:05;;;;;;;7.68;2.95;;;4.70;99.90;;;;;;5038698;28;20026;-74
2022/12/15 08:01:31;;;;;;;7.25;3.97;;;;;;;;;;5042439;28;20040;-74
2022/12/15 08:03:57;;;;;;;3.92;2.35;;;;;;;;;;5044857;28;20028;-73
2022/12/15 08:06:24;;;;;;;5.03;3.03;;;;;;;;;;5048527;28;20037;-74
2022/12/15 08:08:50;;;;;;;6.07;3.45;;;5.20;99.90;;;;;;5037628;28;20020;-73
2022/12/15 08:11:16;;;;;;;5.45;2.95;;;;;;;;;;5041496;28;20568;-73
2022/12/15 08:13:42;;;;;;;7.10;3.00;;;4.90;99.90;;;;;;5043355;28;20502;-74
2022/12/15 08:16:08;;;;;;;2.60;2.30;;;;;;;;;;5040061;28;20406;-74
2022/12/15 08:18:34;;;;;;;7.38;3.47;;;;;;;;;;5039720;28;20021;-74
2022/12/15 08:21:05;;;;;;;14.10;4.10;;;5.20;99.90;;;;;;5039032;28;20025;-73
2022/12/15 08:23:31;;;;;;;5.57;3.38;;;5.20;99.90;;;;;;5041284;28;20037;-74
2022/12/15 08:26:09;;;;;;;4.30;2.83;;;5.10;99.90;;;;;;5043185;28;20044;-73
2022/12/15 08:28:35;;;;;;;5.10;3.70;;;6.10;99.90;;;;;;5047636;28;20013;-74
2022/12/15 08:31:05;;;;;;;7.50;3.85;;;5.20;99.90;;;;;;5041715;28;20033;-72
2022/12/15 08:33:31;;;;;;;4.38;3.03;;;5.20;99.90;;;;;;5044632;28;20032;-71
2022/12/15 08:36:02;;;;;;;4.68;2.45;;;5.30;99.90;;;;;;5047486;28;20402;-72
2022/12/15 08:38:28;;;;;;;5.05;2.28;;;5.20;99.90;;;;;;5047706;28;20040;-71
2022/12/15 08:40:54;;;;;;;7.75;4.15;;;;;;;;;;5047131;28;20055;-71
2022/12/15 08:43:20;;;;;;;4.55;4.15;;;;;;;;;;5041148;28;20609;-71
2022/12/15 08:45:46;;;;;;;5.43;2.90;;;;;;;;;;5046059;28;20136;-71
2022/12/15 08:48:12;;;;;;;10.95;3.90;;;;;;;;;;5033632;28;20025;-72
2022/12/15 08:50:43;;;;;;;4.68;2.97;;;5.30;99.90;;;;;;5047258;28;20554;-72
2022/12/15 08:53:10;;;;;;;4.97;2.70;;;5.60;99.90;;;;;;5047978;28;20024;-71
2022/12/15 08:55:36;;;;;;;5.65;3.30;;;5.30;99.90;;;;;;5048863;28;20025;-72
2022/12/15 08:58:01;;;;;;;3.50;2.70;;;;;;;;;;5046274;28;20060;-72
2022/12/15 09:00:27;;;;;;;4.88;2.70;;;;;;;;;;5047108;28;20091;-71
2022/12/15 09:02:53;;;;;;;5.13;3.08;;;;;;;;;;5048144;28;20025;-70
2022/12/15 09:05:19;;;;;;;3.92;2.55;;;;;;;;;;5047788;28;20037;-71
2022/12/15 09:07:45;;;;;;;4.05;2.58;;;;;;;;;;5047615;28;20025;-71
2022/12/15 09:10:11;;;;;;;4.60;1.88;;;;;;;;;;5041647;28;20090;-71
2022/12/15 09:12:37;;;;;;;2.78;2.35;;;;;;;;;;5046275;28;20029;-71
2022/12/15 09:15:04;;;;;;;6.80;2.35;;;5.20;99.90;;;;;;5047022;28;20057;-71
2022/12/15 09:17:29;;;;;;;5.57;2.35;;;5.30;99.90;;;;;;5037124;28;20039;-72
2022/12/15 09:19:55;;;;;;;3.97;2.72;;;;;;;;;;5047528;28;20029;-71
2022/12/15 09:22:21;;;;;;;4.30;3.22;;;;;;;;;;5045970;28;20056;-71
2022/12/15 09:24:48;;;;;;;4.20;1.90;;;5.20;99.90;;;;;;5047610;28;20044;-71
2022/12/15 09:27:14;;;;;;;7.00;2.30;;;5.30;99.90;;;;;;5046272;28;20136;-71
2022/12/15 09:29:40;;;;;;;4.60;2.55;;;;;;;;;;5048024;28;20121;-72
2022/12/15 09:32:06;;;;;;;3.20;2.08;;;;;;;;;;5047285;28;20021;-71
2022/12/15 09:34:32;;;;;;;5.95;2.28;;;5.20;99.90;;;;;;5047953;28;20089;-71
2022/12/15 09:36:58;;;;;;;2.20;1.67;;;;;;;;;;5058569;28;20033;-72
2022/12/15 09:39:24;;;;;;;3.17;1.95;;;;;;;;;;5044578;28;20033;-71
2022/12/15 09:41:57;;;;;;;6.32;2.33;;;5.30;99.90;;;;;;5044517;28;20036;-71
2022/12/15 09:44:24;;;;;;;5.78;2.05;;;5.50;99.90;;;;;;5044665;28;20029;-71
2022/12/15 09:47:16;;;;;;;5.97;2.58;;;5.60;99.90;;;;;;5048497;28;20142;-70
2022/12/15 09:50:01;;;;;;;4.10;3.22;;;5.50;99.90;;;;;;5048234;28;20025;-71
2022/12/15 09:52:37;;;;;;;2.47;2.28;;;5.70;99.90;;;;;;5047101;28;20094;-70
2022/12/15 09:55:20;;;;;;;4.80;2.08;;;5.60;99.90;;;;;;5047148;28;20028;-71
2022/12/15 09:58:24;;;;;;;6.90;2.67;;;5.60;99.90;;;;;;5046858;28;20021;-71
2022/12/15 10:01:00;;;;;;;4.07;2.63;;;5.50;99.90;;;;;;5042774;28;20138;-70
2022/12/15 10:03:36;;;;;;;7.13;3.92;;;6.80;99.90;;;;;;5046699;28;20025;-70
2022/12/15 10:06:20;;;;;;;3.58;2.65;;;5.50;99.90;;;;;;5046219;28;20060;-71
2022/12/15 10:08:46;;;;;;;3.47;2.38;;;;;;;;;;5046158;28;20025;-71
2022/12/15 10:11:47;;;;;;;3.50;2.53;;;5.80;99.90;;;;;;5046792;28;20028;-73
2022/12/15 10:14:36;;;;;;;2.42;2.22;;;5.50;99.90;;;;;;5020346;28;20086;-71
2022/12/15 10:17:08;;;;;;;4.88;2.70;;;5.90;99.90;;;;;;5023874;28;20033;-72
2022/12/15 10:19:54;;;;;;;3.80;2.30;;;5.60;99.90;;;;;;5010734;28;20177;-72
2022/12/15 10:22:24;;;;;;;4.32;2.95;;;5.60;99.90;;;;;;5018639;28;20032;-71
2022/12/15 10:24:50;;;;;;;4.53;2.17;;;;;;;;;;5021912;28;20129;-71
2022/12/15 10:27:38;;;;;;;2.30;2.10;;;5.70;99.90;;;;;;5023136;28;20453;-72
2022/12/15 10:30:07;;;;;;;5.05;3.40;;;5.60;99.90;;;;;;5023838;28;20033;-72
2022/12/15 10:32:54;;;;;;;3.70;2.08;;;5.60;99.90;;;;;;5022596;28;20045;-71
2022/12/15 10:35:24;;;;;;;3.83;2.42;;;5.50;99.90;;;;;;5022841;28;20033;-72
2022/12/15 10:37:50;;;;;;;7.05;2.65;;;;;;;;;;5017470;28;20033;-71
2022/12/15 10:40:39;;;;;;;3.92;2.22;;;5.60;99.90;;;;;;5022954;28;20041;-71
2022/12/15 10:43:23;;;;;;;4.32;2.22;;;5.60;99.90;;;;;;5020882;28;20528;-71
2022/12/15 10:45:58;;;;;;;2.95;2.00;;;5.60;99.90;;;;;;5022780;28;20037;-71
2022/12/15 10:48:24;;;;;;;3.08;2.17;;;;;;;;;;5022747;28;20030;-71
2022/12/15 10:50:50;;;;;;;3.78;1.73;;;5.60;99.90;;;;;;5004064;28;20041;-72
2022/12/15 10:54:09;;;;;;;3.78;2.05;;;5.60;99.90;;;;;;5016335;28;20446;-73
2022/12/15 10:56:47;;;;;;;2.20;2.00;;;5.50;99.90;;;;;;5022808;28;20140;-73
2022/12/15 10:59:27;;;;;;;2.47;1.83;;;5.50;99.90;;;;;;5023146;28;20049;-72
2022/12/15 11:01:53;;;;;;;2.33;1.55;;;5.70;99.90;;;;;;5022711;28;20045;-72
2022/12/15 11:04:31;;;;;;;3.15;1.83;;;5.40;99.90;;;;;;5022691;28;20042;-73
2022/12/15 11:06:59;;;;;;;1.75;1.63;;;5.40;99.90;;;;;;5023095;28;20108;-72
2022/12/15 11:09:43;;;;;;;2.72;1.67;;;5.50;99.90;;;;;;5021356;28;20124;-75
2022/12/15 11:15:02;;;;;;;3.67;2.13;;;;;;;;;;5020849;28;20659;-72
2022/12/15 11:17:38;;;;;;;7.93;2.40;;;5.40;99.90;;;;;;5022414;28;20038;-72
2022/12/15 11:20:11;;;;;;;1.85;1.73;;;5.40;99.90;;;;;;5026814;28;20251;-73
2022/12/15 11:22:48;;;;;;;1.90;1.80;;;5.40;99.90;;;;;;5023588;28;20034;-72
2022/12/15 11:25:32;;;;;;;3.03;2.05;;;5.50;99.90;;;;;;5021717;28;20036;-72
2022/12/15 11:28:01;;;;;;;4.40;1.67;;;5.30;99.90;;;;;;5016788;28;20029;-72
2022/12/15 11:30:34;;;;;;;3.42;2.00;;;5.30;99.90;;;;;;5020259;28;20026;-72
2022/12/15 11:33:00;;;;;;;2.55;1.95;;;5.40;99.90;;;;;;5024615;28;20030;-72
2022/12/15 11:35:45;;;;;;;4.05;2.25;;;5.50;99.90;;;;;;5016273;28;20065;-74
2022/12/15 11:38:39;;;;;;;1.33;1.23;;;5.50;99.90;;;;;;5022058;28;20076;-72
2022/12/15 11:41:26;;;;;;;3.90;2.08;;;5.50;99.90;;;;;;5023587;28;20029;-73
2022/12/15 11:44:19;;;;;;;3.28;2.10;;;5.50;99.90;;;;;;5022808;28;20101;-74
2022/12/15 11:47:24;;;;;;;6.88;2.15;;;5.40;99.90;;;;;;5024441;28;20024;-71
2022/12/15 11:50:27;;;;;;;9.77;2.30;;;5.50;99.90;;;;;;5021137;28;20538;-72
2022/12/15 11:53:03;;;;;;;2.78;1.85;;;5.40;99.90;;;;;;5023376;28;20045;-72
2022/12/15 11:55:52;;;;;;;5.47;2.13;;;5.40;99.90;;;;;;5022648;28;20047;-71
2022/12/15 11:58:34;;;;;;;2.55;2.17;;;5.30;99.90;;;;;;5017881;28;20025;-72
2022/12/15 12:01:00;;;;;;;2.90;1.75;;;;;;;;;;5024538;28;20033;-71
2022/12/15 12:03:56;;;;;;;5.45;2.60;;;5.20;99.90;;;;;;5023291;28;20029;-71
2022/12/15 12:06:45;;;;;;;2.40;2.20;;;5.20;99.90;;;;;;5039435;28;20115;-72
2022/12/15 12:09:20;;;;;;;5.18;2.30;;;5.30;99.90;;;;;;5024050;28;20030;-73
2022/12/15 12:12:15;;;;;;;2.67;2.03;;;5.30;99.90;;;;;;5024454;28;20056;-73
2022/12/15 12:14:40;;;;;;;4.25;1.90;;;;;;;;;;5027385;28;20025;-71
2022/12/15 12:17:25;;;;;;;1.83;1.73;;;5.30;99.90;;;;;;5019360;28;20803;-72
2022/12/15 12:19:56;;;;;;;3.58;2.33;;;5.30;99.90;;;;;;5015332;28;20109;-73
2022/12/15 12:22:31;;;;;;;1.52;1.42;;;5.50;99.90;;;;;;5022779;28;20060;-74
2022/12/15 12:25:15;;;;;;;2.50;2.25;;;5.30;99.90;;;;;;5025930;28;20037;-73
2022/12/15 12:27:56;;;;;;;4.13;2.17;;;5.40;99.90;;;;;;5025389;28;20663;-74
2022/12/15 12:30:26;;;;;;;1.73;1.63;;;5.50;99.90;;;;;;5030209;28;20052;-73
2022/12/15 12:32:53;;;;;;;1.92;1.75;;;;;;;;;;5026192;28;20477;-74
2022/12/15 12:35:37;;;;;;;3.92;2.05;;;5.40;99.90;;;;;;5026704;28;20026;-73
2022/12/15 12:38:09;;;;;;;1.60;1.50;;;5.50;99.90;;;;;;5026512;28;20632;-73
2022/12/15 12:40:50;;;;;;;2.33;1.60;;;5.50;99.90;;;;;;5025777;28;20116;-73
2022/12/15 12:43:36;;;;;;;4.05;1.70;;;5.40;99.90;;;;;;5045585;28;20048;-73
2022/12/15 12:46:02;;;;;;;3.25;1.80;;;;;;;;;;5047464;28;20072;-73
2022/12/15 12:48:37;;;;;;;2.72;2.10;;;5.40;99.90;;;;;;5048283;28;20051;-75
2022/12/15 12:51:30;;;;;;;2.00;1.80;;;5.40;99.90;;;;;;5048429;28;20029;-75
2022/12/15 12:53:57;;;;;;;2.67;2.08;;;5.30;99.90;;;;;;5049849;28;20034;-75
2022/12/15 12:56:34;;;;;;;2.30;2.05;;;5.30;99.90;;;;;;5049620;28;20494;-75
2022/12/15 12:59:06;;;;;;;3.13;1.60;;;5.30;99.90;;;;;;5047401;28;20021;-75
2022/12/15 13:01:34;;;;;;;1.70;1.60;;;5.20;99.90;;;;;;5048586;28;20037;-74
2022/12/15 13:04:38;;;;;;;2.53;2.33;;;5.20;99.90;;;;;;5049104;28;20572;-73
2022/12/15 13:07:28;;;;;;;2.42;1.80;;;5.10;99.90;;;;;;5046893;28;20025;-73
2022/12/15 13:10:16;;;;;;;1.58;1.38;;;5.10;99.90;;;;;;5046270;28;20048;-72
2022/12/15 13:12:50;;;;;;;1.60;1.50;;;5.00;99.90;;;;;;5048049;28;20021;-72
2022/12/15 13:15:32;;;;;;;1.58;1.48;;;5.10;99.90;;;;;;5048883;28;20033;-72
2022/12/15 13:18:12;;;;;;;2.10;1.45;;;5.10;99.90;;;;;;5049146;28;20017;-72
2022/12/15 13:20:39;;;;;;;1.45;1.35;;;5.10;99.90;;;;;;5048848;28;20125;-72
2022/12/15 13:23:20;;;;;;;1.05;1.05;;;5.40;99.90;;;;;;5041284;28;20079;-69
2022/12/15 13:25:46;;;;;;;1.50;1.40;;;;;;;;;;5046579;28;20122;-70
2022/12/15 13:28:34;;;;;;;3.75;1.67;;;5.10;99.90;;;;;;5048421;28;20067;-70
2022/12/15 13:31:15;;;;;;;1.50;1.40;;;5.10;99.90;;;;;;5046521;28;20033;-71
2022/12/15 13:33:44;;;;;;;1.55;1.10;;;5.10;99.90;;;;;;5049310;28;20032;-71
2022/12/15 13:36:10;;;;;;;1.80;1.70;;;;;;;;;;5046520;28;20505;-70
2022/12/15 13:38:54;;;;;;;2.20;1.95;;;5.10;99.90;;;;;;5048678;28;20024;-72
2022/12/15 13:41:23;;;;;;;1.63;1.40;;;5.10;99.90;;;;;;5041365;28;20053;-71
2022/12/15 13:43:52;;;;;;;2.00;1.90;;;5.10;99.90;;;;;;5046244;28;20025;-71
2022/12/15 13:46:23;;;;;;;3.20;1.85;;;5.20;99.90;;;;;;5047763;28;20033;-70
2022/12/15 13:49:11;;;;;;;1.90;1.80;;;5.10;99.90;;;;;;5044542;28;20040;-71
2022/12/15 13:51:44;;;;;;;2.28;1.67;;;5.10;99.90;;;;;;5052057;28;20032;-71
2022/12/15 13:54:15;;;;;;;2.45;2.20;;;5.10;99.90;;;;;;5045719;28;20032;-72
2022/12/15 13:57:00;;;;;;;1.42;1.33;;;5.10;99.90;;;;;;5038908;28;20416;-71
2022/12/15 13:59:39;;;;;;;1.65;1.55;;;5.20;99.90;;;;;;5053094;28;20386;-71
2022/12/15 14:02:23;;;;;;;2.42;2.20;;;5.10;99.90;;;;;;5041592;28;20025;-72
2022/12/15 14:05:11;;;;;;;1.70;1.50;;;5.10;99.90;;;;;;5045163;28;20017;-72
2022/12/15 14:07:38;;;;;;;1.83;1.67;;;5.10;99.90;;;;;;5042554;28;20478;-71
2022/12/15 14:10:06;;;;;;;;;;;5.10;99.90;;;;;;5044443;28;20021;-71
2022/12/15 14:12:32;;;;;;;2.17;1.60;;;5.10;99.90;;;;;;5043446;28;19908;-72
2022/12/15 14:14:57;;;;;;;2.28;1.58;;;5.00;99.90;;;;;;5043485;28;20116;-72
2022/12/15 14:17:24;;;;;;;2.35;1.33;;;5.20;99.90;;;;;;5042227;28;20044;-72
2022/12/15 14:19:50;;;;;;;2.00;1.77;;;;;;;;;;5046187;28;20052;-72
2022/12/15 14:22:20;;;;;;;3.53;2.10;;;5.20;99.90;;;;;;5049003;28;20094;-71
2022/12/15 14:24:47;;;;;;;6.20;2.10;;;;;;;;;;5064343;28;20040;-72
2022/12/15 14:27:29;;;;;;;2.15;1.67;;;4.90;99.90;;;;;;5049914;28;20016;-71
2022/12/15 14:30:13;;;;;;;3.70;2.53;;;5.30;99.90;;;;;;5048500;28;20025;-70
2022/12/15 14:32:40;;;;;;;4.18;2.35;;;5.00;99.90;;;;;;5049076;28;20036;-71
2022/12/15 14:35:13;;;;;;;1.60;1.50;;;5.00;99.90;;;;;;5054158;28;20020;-71
2022/12/15 14:37:39;;;;;;;1.10;1.10;;;;;;;;;;5054720;28;20070;-74
2022/12/15 14:40:11;;;;;;;1.45;1.35;;;5.00;99.90;;;;;;5050273;28;20137;-75
2022/12/15 14:42:37;;;;;;;1.52;1.38;;;5.00;99.90;;;;;;5046061;28;20525;-74
2022/12/15 14:45:03;;;;;;;2.05;1.00;;;5.00;99.90;;;;;;5055894;28;20129;-73
2022/12/15 14:47:33;;;;;;;0.90;0.90;;;4.80;99.90;;;;;;5038882;28;20104;-74
2022/12/15 14:50:02;;;;;;;1.33;1.25;;;5.00;99.90;;;;;;5059476;28;20090;-76
2022/12/15 14:52:37;;;;;;;1.70;1.60;;;4.90;99.90;;;;;;5063796;28;20027;-75
2022/12/15 14:55:38;;;;;;;2.42;1.58;;;5.00;99.90;;;;;;5062570;28;20071;-74
2022/12/15 14:58:28;;;;;;;3.88;1.00;;;4.90;99.90;;;;;;5061833;28;20512;-73
2022/12/15 15:00:54;;;;;;;1.08;0.98;;;5.40;99.90;;;;;;5061979;28;20036;-74
2022/12/15 15:03:25;;;;;;;2.50;1.50;;;4.90;99.90;;;;;;5060937;28;20027;-73
2022/12/15 15:05:58;;;;;;;1.00;1.00;;;4.90;99.90;;;;;;5046667;28;20048;-72
2022/12/15 15:08:33;;;;;;;1.10;1.08;;;4.90;99.90;;;;;;5060420;28;20028;-73
2022/12/15 15:11:28;;;;;;;2.40;1.33;;;4.90;99.90;;;;;;5057228;28;20016;-70
2022/12/15 15:14:27;;;;;;;1.42;1.33;;;4.80;99.90;;;;;;5055564;28;20025;-72
2022/12/15 15:17:11;;;;;;;1.50;1.40;;;4.90;99.90;;;;;;5041431;28;20048;-72
2022/12/15 15:19:44;;;;;;;1.35;1.25;;;5.30;99.90;;;;;;5038292;28;20029;-74
2022/12/15 15:22:41;;;;;;;1.33;1.20;;;4.90;99.90;;;;;;5044321;28;20056;-75
2022/12/15 15:25:27;;;;;;;1.15;1.10;;;4.70;99.90;;;;;;5032215;28;20057;-72
2022/12/15 15:28:21;;;;;;;3.30;1.23;;;4.80;99.90;;;;;;5062925;28;20086;-72
2022/12/15 15:30:47;;;;;;;1.52;1.23;;;;;;;;;;5064361;28;20021;-72
2022/12/15 15:33:14;;;;;;;1.90;1.50;;;;;;;;;;5047138;28;20029;-72
2022/12/15 15:35:41;;;;;;;2.60;0.88;;;4.80;99.90;;;;;;5048355;28;20043;-72
2022/12/15 15:38:27;;;;;;;0.90;0.90;;;4.80;99.90;;;;;;5040696;28;20108;-69
2022/12/15 15:40:58;;;;;;;1.70;1.10;;;4.70;99.90;;;;;;5048122;28;20552;-70
2022/12/15 15:43:26;;;;;;;0.77;0.77;;;1.60;99.90;;;;;;5050173;28;20048;-70
2022/12/15 15:46:06;;;;;;;0.95;0.95;;;4.60;99.90;;;;;;5050673;28;20521;-71
2022/12/15 15:48:40;;;;;;;1.50;1.20;;;4.80;99.90;;;;;;5048577;28;20032;-70
2022/12/15 15:51:06;;;;;;;1.40;1.40;;;;;;;;;;5048995;28;20135;-70
2022/12/15 15:53:34;;;;;;;1.00;0.90;;;4.70;99.90;;;;;;5049796;28;20724;-70
2022/12/15 15:56:05;;;;;;;0.98;0.98;;;4.70;99.90;;;;;;5049314;28;20031;-70
2022/12/15 15:58:31;;;;;;;0.77;0.77;;;;;;;;;;5054450;28;20025;-70
2022/12/15 16:00:57;;;;;;;0.60;0.60;;;;;;;;;;5045902;28;20025;-70
2022/12/15 16:03:23;;;;;;;1.00;1.00;;;;;;;;;;5048983;28;20483;-70
2022/12/15 16:05:49;;;;;;;1.23;1.13;;;;;;;;;;5049388;28;21048;-70
2022/12/15 16:08:20;;;;;;;0.80;0.80;;;4.80;99.90;;;;;;5048426;28;20025;-70
2022/12/15 16:10:47;;;;;;;0.77;0.77;;;4.90;99.90;;;;;;5052457;28;20021;-70
2022/12/15 16:13:18;;;;;;;0.93;0.93;;;4.80;99.90;;;;;;5048939;28;20028;-70
2022/12/15 16:15:44;;;;;;;0.85;0.80;;;4.80;99.90;;;;;;5048335;28;20032;-70
2022/12/15 16:18:10;;;;;;;1.58;1.05;;;;;;;;;;5048544;28;20036;-71